sensor_id;sensor_type;location;lat;lon;timestamp;temperature;humidity
44170;DHT22;29836;52.286;9.576;2023-04-24T00:01:26;10.90;99.90
44170;DHT22;29836;52.286;9.576;2023-04-24T00:03:54;10.80;99.90
44170;DHT22;29836;52.286;9.576;2023-04-24T00:06:20;10.80;99.90
44170;DHT22;29836;52.286;9.576;2023-04-24T00:08:45;10.90;99.90
44170;DHT22;29836;52.286;9.576;2023-04-24T00:11:11;10.80;99.90
44170;DHT22;29836;52.286;9.576;2023-04-24T00:13:37;10.80;99.90
44170;DHT22;29836;52.286;9.576;2023-04-24T00:16:03;10.70;99.90
44170;DHT22;29836;52.286;9.576;2023-04-24T00:18:28;10.80;99.90
44170;DHT22;29836;52.286;9.576;2023-04-24T00:20:54;10.80;99.90
44170;DHT22;29836;52.286;9.576;2023-04-24T00:23:19;10.90;99.90
44170;DHT22;29836;52.286;9.576;2023-04-24T00:25:45;10.80;99.90
44170;DHT22;29836;52.286;9.576;2023-04-24T00:28:10;10.80;99.90
44170;DHT22;29836;52.286;9.576;2023-04-24T00:30:36;10.80;99.90
44170;DHT22;29836;52.286;9.576;2023-04-24T00:33:01;10.70;99.90
44170;DHT22;29836;52.286;9.576;2023-04-24T00:35:27;10.60;99.90
44170;DHT22;29836;52.286;9.576;2023-04-24T00:37:52;10.60;99.90
44170;DHT22;29836;52.286;9.576;2023-04-24T00:40:18;10.60;99.90
44170;DHT22;29836;52.286;9.576;2023-04-24T00:42:43;10.50;99.90
44170;DHT22;29836;52.286;9.576;2023-04-24T00:45:09;10.50;99.90
44170;DHT22;29836;52.286;9.576;2023-04-24T00:47:35;10.40;99.90
44170;DHT22;29836;52.286;9.576;2023-04-24T00:50:05;10.50;99.90
44170;DHT22;29836;52.286;9.576;2023-04-24T00:52:31;10.40;99.90
44170;DHT22;29836;52.286;9.576;2023-04-24T00:54:58;10.30;99.90
44170;DHT22;29836;52.286;9.576;2023-04-24T00:57:23;10.20;99.90
44170;DHT22;29836;52.286;9.576;2023-04-24T00:59:51;10.20;99.90
44170;DHT22;29836;52.286;9.576;2023-04-24T01:02:16;10.20;99.90
44170;DHT22;29836;52.286;9.576;2023-04-24T01:04:42;10.00;99.90
44170;DHT22;29836;52.286;9.576;2023-04-24T01:07:08;10.10;99.90
44170;DHT22;29836;52.286;9.576;2023-04-24T01:09:37;10.10;99.90
44170;DHT22;29836;52.286;9.576;2023-04-24T01:12:05;10.00;99.90
44170;DHT22;29836;52.286;9.576;2023-04-24T01:14:30;9.90;99.90
44170;DHT22;29836;52.286;9.576;2023-04-24T01:16:56;9.90;99.90
44170;DHT22;29836;52.286;9.576;2023-04-24T01:19:22;9.80;99.90
44170;DHT22;29836;52.286;9.576;2023-04-24T01:21:51;9.60;99.90
44170;DHT22;29836;52.286;9.576;2023-04-24T01:24:19;9.50;99.90
44170;DHT22;29836;52.286;9.576;2023-04-24T01:26:45;9.30;99.90
44170;DHT22;29836;52.286;9.576;2023-04-24T01:29:11;9.10;99.90
44170;DHT22;29836;52.286;9.576;2023-04-24T01:31:38;9.00;99.90
44170;DHT22;29836;52.286;9.576;2023-04-24T01:34:04;8.80;99.90
44170;DHT22;29836;52.286;9.576;2023-04-24T01:36:31;8.70;99.90
44170;DHT22;29836;52.286;9.576;2023-04-24T01:38:58;8.70;99.90
44170;DHT22;29836;52.286;9.576;2023-04-24T01:41:23;8.70;99.90
44170;DHT22;29836;52.286;9.576;2023-04-24T01:43:50;8.70;99.90
44170;DHT22;29836;52.286;9.576;2023-04-24T01:46:15;8.70;99.90
44170;DHT22;29836;52.286;9.576;2023-04-24T01:48:41;8.70;99.90
44170;DHT22;29836;52.286;9.576;2023-04-24T01:51:07;8.80;99.90
44170;DHT22;29836;52.286;9.576;2023-04-24T01:53:32;8.90;99.90
44170;DHT22;29836;52.286;9.576;2023-04-24T01:55:58;9.00;99.90
44170;DHT22;29836;52.286;9.576;2023-04-24T01:58:24;9.00;99.90
44170;DHT22;29836;52.286;9.576;2023-04-24T02:00:50;9.00;99.90
44170;DHT22;29836;52.286;9.576;2023-04-24T02:03:15;8.90;99.90
44170;DHT22;29836;52.286;9.576;2023-04-24T02:05:44;8.70;99.90
44170;DHT22;29836;52.286;9.576;2023-04-24T02:08:09;8.60;99.90
44170;DHT22;29836;52.286;9.576;2023-04-24T02:10:35;8.50;99.90
44170;DHT22;29836;52.286;9.576;2023-04-24T02:13:01;8.40;99.90
44170;DHT22;29836;52.286;9.576;2023-04-24T02:15:26;8.50;99.90
44170;DHT22;29836;52.286;9.576;2023-04-24T02:17:52;8.60;99.90
44170;DHT22;29836;52.286;9.576;2023-04-24T02:20:17;8.60;99.90
44170;DHT22;29836;52.286;9.576;2023-04-24T02:22:42;8.60;99.90
44170;DHT22;29836;52.286;9.576;2023-04-24T02:25:08;8.50;99.90
44170;DHT22;29836;52.286;9.576;2023-04-24T02:27:34;8.40;99.90
44170;DHT22;29836;52.286;9.576;2023-04-24T02:29:59;8.50;99.90
44170;DHT22;29836;52.286;9.576;2023-04-24T02:32:25;8.50;99.90
44170;DHT22;29836;52.286;9.576;2023-04-24T02:34:51;8.60;99.90
44170;DHT22;29836;52.286;9.576;2023-04-24T02:37:16;8.80;99.90
44170;DHT22;29836;52.286;9.576;2023-04-24T02:39:42;8.90;99.90
44170;DHT22;29836;52.286;9.576;2023-04-24T02:42:07;9.00;99.90
44170;DHT22;29836;52.286;9.576;2023-04-24T02:44:33;8.90;99.90
44170;DHT22;29836;52.286;9.576;2023-04-24T02:46:59;8.90;99.90
44170;DHT22;29836;52.286;9.576;2023-04-24T02:49:24;9.00;99.90
44170;DHT22;29836;52.286;9.576;2023-04-24T02:51:51;9.20;99.90
44170;DHT22;29836;52.286;9.576;2023-04-24T02:54:16;9.10;99.90
44170;DHT22;29836;52.286;9.576;2023-04-24T02:56:42;9.20;99.90
44170;DHT22;29836;52.286;9.576;2023-04-24T02:59:08;9.20;99.90
44170;DHT22;29836;52.286;9.576;2023-04-24T03:01:34;9.20;99.90
44170;DHT22;29836;52.286;9.576;2023-04-24T03:04:00;9.10;99.90
44170;DHT22;29836;52.286;9.576;2023-04-24T03:06:26;9.10;99.90
44170;DHT22;29836;52.286;9.576;2023-04-24T03:08:52;9.10;99.90
44170;DHT22;29836;52.286;9.576;2023-04-24T03:11:18;9.10;99.90
44170;DHT22;29836;52.286;9.576;2023-04-24T03:13:43;9.10;99.90
44170;DHT22;29836;52.286;9.576;2023-04-24T03:16:08;9.00;99.90
44170;DHT22;29836;52.286;9.576;2023-04-24T03:18:34;8.90;99.90
44170;DHT22;29836;52.286;9.576;2023-04-24T03:21:00;8.80;99.90
44170;DHT22;29836;52.286;9.576;2023-04-24T03:23:26;8.80;99.90
44170;DHT22;29836;52.286;9.576;2023-04-24T03:25:51;8.80;99.90
44170;DHT22;29836;52.286;9.576;2023-04-24T03:28:17;8.80;99.90
44170;DHT22;29836;52.286;9.576;2023-04-24T03:30:42;8.70;99.90
44170;DHT22;29836;52.286;9.576;2023-04-24T03:33:08;8.50;99.90
44170;DHT22;29836;52.286;9.576;2023-04-24T03:35:35;8.40;99.90
44170;DHT22;29836;52.286;9.576;2023-04-24T03:38:01;8.30;99.90
44170;DHT22;29836;52.286;9.576;2023-04-24T03:40:27;8.20;99.90
44170;DHT22;29836;52.286;9.576;2023-04-24T03:42:54;8.20;99.90
44170;DHT22;29836;52.286;9.576;2023-04-24T03:45:20;8.20;99.90
44170;DHT22;29836;52.286;9.576;2023-04-24T03:47:45;8.20;99.90
44170;DHT22;29836;52.286;9.576;2023-04-24T03:50:11;8.20;99.90
44170;DHT22;29836;52.286;9.576;2023-04-24T03:52:36;8.10;99.90
44170;DHT22;29836;52.286;9.576;2023-04-24T03:55:02;8.10;99.90
44170;DHT22;29836;52.286;9.576;2023-04-24T03:57:28;8.00;99.90
44170;DHT22;29836;52.286;9.576;2023-04-24T03:59:53;7.90;99.90
44170;DHT22;29836;52.286;9.576;2023-04-24T04:02:19;7.80;99.90
44170;DHT22;29836;52.286;9.576;2023-04-24T04:04:44;7.80;99.90
44170;DHT22;29836;52.286;9.576;2023-04-24T04:07:10;7.90;99.90
44170;DHT22;29836;52.286;9.576;2023-04-24T04:09:36;8.10;99.90
44170;DHT22;29836;52.286;9.576;2023-04-24T04:12:02;8.20;99.90
44170;DHT22;29836;52.286;9.576;2023-04-24T04:14:27;8.30;99.90
44170;DHT22;29836;52.286;9.576;2023-04-24T04:16:53;8.40;99.90
44170;DHT22;29836;52.286;9.576;2023-04-24T04:19:18;8.40;99.90
44170;DHT22;29836;52.286;9.576;2023-04-24T04:21:44;8.40;99.90
44170;DHT22;29836;52.286;9.576;2023-04-24T04:24:11;8.50;99.90
44170;DHT22;29836;52.286;9.576;2023-04-24T04:26:37;8.50;99.90
44170;DHT22;29836;52.286;9.576;2023-04-24T04:29:03;8.60;99.90
44170;DHT22;29836;52.286;9.576;2023-04-24T04:31:29;8.70;99.90
44170;DHT22;29836;52.286;9.576;2023-04-24T04:33:55;8.60;99.90
44170;DHT22;29836;52.286;9.576;2023-04-24T04:36:20;8.50;99.90
44170;DHT22;29836;52.286;9.576;2023-04-24T04:38:46;8.50;99.90
44170;DHT22;29836;52.286;9.576;2023-04-24T04:41:11;8.50;99.90
44170;DHT22;29836;52.286;9.576;2023-04-24T04:43:37;8.50;99.90
44170;DHT22;29836;52.286;9.576;2023-04-24T04:46:04;8.50;99.90
44170;DHT22;29836;52.286;9.576;2023-04-24T04:48:30;8.60;99.90
44170;DHT22;29836;52.286;9.576;2023-04-24T04:50:57;8.70;99.90
44170;DHT22;29836;52.286;9.576;2023-04-24T04:53:22;8.90;99.90
44170;DHT22;29836;52.286;9.576;2023-04-24T04:55:48;9.00;99.90
44170;DHT22;29836;52.286;9.576;2023-04-24T04:58:13;9.20;99.90
44170;DHT22;29836;52.286;9.576;2023-04-24T05:00:39;9.30;99.90
44170;DHT22;29836;52.286;9.576;2023-04-24T05:03:04;9.30;99.90
44170;DHT22;29836;52.286;9.576;2023-04-24T05:05:30;9.40;99.90
44170;DHT22;29836;52.286;9.576;2023-04-24T05:07:55;9.50;99.90
44170;DHT22;29836;52.286;9.576;2023-04-24T05:10:21;9.50;99.90
44170;DHT22;29836;52.286;9.576;2023-04-24T05:12:46;9.60;99.90
44170;DHT22;29836;52.286;9.576;2023-04-24T05:15:12;9.60;99.90
44170;DHT22;29836;52.286;9.576;2023-04-24T05:17:37;9.70;99.90
44170;DHT22;29836;52.286;9.576;2023-04-24T05:20:05;9.80;99.90
44170;DHT22;29836;52.286;9.576;2023-04-24T05:22:31;9.90;99.90
44170;DHT22;29836;52.286;9.576;2023-04-24T05:24:57;10.10;99.90
44170;DHT22;29836;52.286;9.576;2023-04-24T05:27:22;10.20;99.90
44170;DHT22;29836;52.286;9.576;2023-04-24T05:29:48;10.30;99.90
44170;DHT22;29836;52.286;9.576;2023-04-24T05:32:13;10.40;99.90
44170;DHT22;29836;52.286;9.576;2023-04-24T05:34:39;10.50;99.90
44170;DHT22;29836;52.286;9.576;2023-04-24T05:37:05;10.60;99.90
44170;DHT22;29836;52.286;9.576;2023-04-24T05:39:33;10.50;99.90
44170;DHT22;29836;52.286;9.576;2023-04-24T05:42:00;10.50;99.90
44170;DHT22;29836;52.286;9.576;2023-04-24T05:44:26;10.50;99.90
44170;DHT22;29836;52.286;9.576;2023-04-24T05:46:52;10.40;99.90
44170;DHT22;29836;52.286;9.576;2023-04-24T05:49:17;10.50;99.90
44170;DHT22;29836;52.286;9.576;2023-04-24T05:51:43;10.50;99.90
44170;DHT22;29836;52.286;9.576;2023-04-24T05:54:08;10.50;99.90
44170;DHT22;29836;52.286;9.576;2023-04-24T05:56:34;10.50;99.90
44170;DHT22;29836;52.286;9.576;2023-04-24T05:59:00;10.50;99.90
44170;DHT22;29836;52.286;9.576;2023-04-24T06:01:25;10.50;99.90
44170;DHT22;29836;52.286;9.576;2023-04-24T06:03:52;10.40;99.90
44170;DHT22;29836;52.286;9.576;2023-04-24T06:06:18;10.40;99.90
44170;DHT22;29836;52.286;9.576;2023-04-24T06:08:44;10.40;99.90
44170;DHT22;29836;52.286;9.576;2023-04-24T06:11:10;10.30;99.90
44170;DHT22;29836;52.286;9.576;2023-04-24T06:13:36;10.30;99.90
44170;DHT22;29836;52.286;9.576;2023-04-24T06:16:01;10.30;99.90
44170;DHT22;29836;52.286;9.576;2023-04-24T06:18:27;10.30;99.90
44170;DHT22;29836;52.286;9.576;2023-04-24T06:20:52;10.40;99.90
44170;DHT22;29836;52.286;9.576;2023-04-24T06:23:18;10.50;99.90
44170;DHT22;29836;52.286;9.576;2023-04-24T06:25:43;10.70;99.90
44170;DHT22;29836;52.286;9.576;2023-04-24T06:28:09;10.90;99.90
44170;DHT22;29836;52.286;9.576;2023-04-24T06:30:34;11.20;99.90
44170;DHT22;29836;52.286;9.576;2023-04-24T06:33:00;11.40;99.90
44170;DHT22;29836;52.286;9.576;2023-04-24T06:35:25;11.50;99.90
44170;DHT22;29836;52.286;9.576;2023-04-24T06:37:51;11.60;99.90
44170;DHT22;29836;52.286;9.576;2023-04-24T06:40:16;12.10;99.90
44170;DHT22;29836;52.286;9.576;2023-04-24T06:42:44;12.20;99.90
44170;DHT22;29836;52.286;9.576;2023-04-24T06:45:09;11.90;99.90
44170;DHT22;29836;52.286;9.576;2023-04-24T06:47:35;11.70;99.90
44170;DHT22;29836;52.286;9.576;2023-04-24T06:50:01;11.60;99.90
44170;DHT22;29836;52.286;9.576;2023-04-24T06:52:26;11.40;99.90
44170;DHT22;29836;52.286;9.576;2023-04-24T06:54:52;11.30;99.90
44170;DHT22;29836;52.286;9.576;2023-04-24T06:57:18;11.30;99.90
44170;DHT22;29836;52.286;9.576;2023-04-24T06:59:43;11.40;99.90
44170;DHT22;29836;52.286;9.576;2023-04-24T07:02:09;11.40;99.90
44170;DHT22;29836;52.286;9.576;2023-04-24T07:04:34;11.50;99.90
44170;DHT22;29836;52.286;9.576;2023-04-24T07:07:00;11.60;99.90
44170;DHT22;29836;52.286;9.576;2023-04-24T07:09:26;11.70;99.90
44170;DHT22;29836;52.286;9.576;2023-04-24T07:11:52;11.90;99.90
44170;DHT22;29836;52.286;9.576;2023-04-24T07:14:19;12.20;99.90
44170;DHT22;29836;52.286;9.576;2023-04-24T07:16:44;12.20;99.90
44170;DHT22;29836;52.286;9.576;2023-04-24T07:19:10;12.30;99.90
44170;DHT22;29836;52.286;9.576;2023-04-24T07:21:36;12.40;99.90
44170;DHT22;29836;52.286;9.576;2023-04-24T07:24:01;12.80;99.90
44170;DHT22;29836;52.286;9.576;2023-04-24T07:26:29;13.10;99.90
44170;DHT22;29836;52.286;9.576;2023-04-24T07:28:54;13.60;99.90
44170;DHT22;29836;52.286;9.576;2023-04-24T07:31:20;13.70;99.90
44170;DHT22;29836;52.286;9.576;2023-04-24T07:33:46;13.70;99.90
44170;DHT22;29836;52.286;9.576;2023-04-24T07:36:11;13.70;99.90
44170;DHT22;29836;52.286;9.576;2023-04-24T07:38:47;14.00;99.90
44170;DHT22;29836;52.286;9.576;2023-04-24T07:41:13;14.30;99.90
44170;DHT22;29836;52.286;9.576;2023-04-24T07:43:39;14.50;99.90
44170;DHT22;29836;52.286;9.576;2023-04-24T07:46:04;14.30;99.90
44170;DHT22;29836;52.286;9.576;2023-04-24T07:48:30;14.00;99.90
44170;DHT22;29836;52.286;9.576;2023-04-24T07:50:56;13.90;99.90
44170;DHT22;29836;52.286;9.576;2023-04-24T07:53:21;13.60;99.90
44170;DHT22;29836;52.286;9.576;2023-04-24T07:55:47;13.70;99.90
44170;DHT22;29836;52.286;9.576;2023-04-24T07:58:12;13.70;99.90
44170;DHT22;29836;52.286;9.576;2023-04-24T08:00:38;13.90;99.90
44170;DHT22;29836;52.286;9.576;2023-04-24T08:03:03;13.90;99.90
44170;DHT22;29836;52.286;9.576;2023-04-24T08:05:29;13.80;99.90
44170;DHT22;29836;52.286;9.576;2023-04-24T08:07:55;13.70;99.90
44170;DHT22;29836;52.286;9.576;2023-04-24T08:10:24;13.20;99.90
44170;DHT22;29836;52.286;9.576;2023-04-24T08:12:50;12.70;99.90
44170;DHT22;29836;52.286;9.576;2023-04-24T08:15:16;12.40;99.90
44170;DHT22;29836;52.286;9.576;2023-04-24T08:17:41;12.30;99.90
44170;DHT22;29836;52.286;9.576;2023-04-24T08:20:10;12.50;99.90
44170;DHT22;29836;52.286;9.576;2023-04-24T08:22:39;12.50;99.90
44170;DHT22;29836;52.286;9.576;2023-04-24T08:25:06;12.50;99.90
44170;DHT22;29836;52.286;9.576;2023-04-24T08:27:31;12.60;99.90
44170;DHT22;29836;52.286;9.576;2023-04-24T08:29:57;12.60;99.90
44170;DHT22;29836;52.286;9.576;2023-04-24T08:32:22;12.70;99.90
44170;DHT22;29836;52.286;9.576;2023-04-24T08:34:48;13.20;99.90
44170;DHT22;29836;52.286;9.576;2023-04-24T08:37:13;13.60;99.90
44170;DHT22;29836;52.286;9.576;2023-04-24T08:39:39;13.80;98.70
44170;DHT22;29836;52.286;9.576;2023-04-24T08:42:05;14.10;99.20
44170;DHT22;29836;52.286;9.576;2023-04-24T08:44:33;14.50;97.30
44170;DHT22;29836;52.286;9.576;2023-04-24T08:47:00;14.80;97.70
44170;DHT22;29836;52.286;9.576;2023-04-24T08:49:27;15.60;95.80
44170;DHT22;29836;52.286;9.576;2023-04-24T08:51:53;16.30;94.90
44170;DHT22;29836;52.286;9.576;2023-04-24T08:54:19;16.50;93.70
44170;DHT22;29836;52.286;9.576;2023-04-24T08:56:45;16.40;93.20
44170;DHT22;29836;52.286;9.576;2023-04-24T08:59:13;16.70;91.50
44170;DHT22;29836;52.286;9.576;2023-04-24T09:01:40;17.40;90.90
44170;DHT22;29836;52.286;9.576;2023-04-24T09:04:07;18.10;89.60
44170;DHT22;29836;52.286;9.576;2023-04-24T09:06:34;17.50;88.00
44170;DHT22;29836;52.286;9.576;2023-04-24T09:09:03;16.40;89.30
44170;DHT22;29836;52.286;9.576;2023-04-24T09:11:30;15.50;91.10
44170;DHT22;29836;52.286;9.576;2023-04-24T09:13:56;15.30;92.30
44170;DHT22;29836;52.286;9.576;2023-04-24T09:16:22;15.00;93.20
44170;DHT22;29836;52.286;9.576;2023-04-24T09:18:50;14.60;93.60
44170;DHT22;29836;52.286;9.576;2023-04-24T09:21:15;14.60;93.70
44170;DHT22;29836;52.286;9.576;2023-04-24T09:23:41;14.50;93.70
44170;DHT22;29836;52.286;9.576;2023-04-24T09:26:09;13.90;94.60
44170;DHT22;29836;52.286;9.576;2023-04-24T09:28:39;13.60;94.80
44170;DHT22;29836;52.286;9.576;2023-04-24T09:31:11;13.40;95.70
44170;DHT22;29836;52.286;9.576;2023-04-24T09:33:38;13.50;96.20
44170;DHT22;29836;52.286;9.576;2023-04-24T09:36:04;14.10;96.10
44170;DHT22;29836;52.286;9.576;2023-04-24T09:38:38;15.80;94.30
44170;DHT22;29836;52.286;9.576;2023-04-24T09:41:06;17.80;89.00
44170;DHT22;29836;52.286;9.576;2023-04-24T09:43:32;17.00;88.60
44170;DHT22;29836;52.286;9.576;2023-04-24T09:45:59;16.20;90.40
44170;DHT22;29836;52.286;9.576;2023-04-24T09:48:35;15.40;91.60
44170;DHT22;29836;52.286;9.576;2023-04-24T09:51:02;14.20;93.50
44170;DHT22;29836;52.286;9.576;2023-04-24T09:53:29;13.60;94.40
44170;DHT22;29836;52.286;9.576;2023-04-24T09:55:56;13.50;95.30
44170;DHT22;29836;52.286;9.576;2023-04-24T09:58:25;13.50;96.50
44170;DHT22;29836;52.286;9.576;2023-04-24T10:00:53;13.60;96.10
44170;DHT22;29836;52.286;9.576;2023-04-24T10:03:19;13.60;96.10
44170;DHT22;29836;52.286;9.576;2023-04-24T10:05:46;13.70;95.80
44170;DHT22;29836;52.286;9.576;2023-04-24T10:08:12;13.60;95.80
44170;DHT22;29836;52.286;9.576;2023-04-24T10:10:43;13.50;96.10
44170;DHT22;29836;52.286;9.576;2023-04-24T10:13:09;13.30;95.80
44170;DHT22;29836;52.286;9.576;2023-04-24T10:15:36;12.80;96.80
44170;DHT22;29836;52.286;9.576;2023-04-24T10:18:04;12.70;97.20
44170;DHT22;29836;52.286;9.576;2023-04-24T10:20:32;13.10;97.90
44170;DHT22;29836;52.286;9.576;2023-04-24T10:22:59;13.40;98.20
44170;DHT22;29836;52.286;9.576;2023-04-24T10:25:27;13.50;97.40
44170;DHT22;29836;52.286;9.576;2023-04-24T10:27:53;13.30;97.40
44170;DHT22;29836;52.286;9.576;2023-04-24T10:30:22;13.20;97.20
44170;DHT22;29836;52.286;9.576;2023-04-24T10:32:48;13.20;97.30
44170;DHT22;29836;52.286;9.576;2023-04-24T10:35:14;13.30;97.40
44170;DHT22;29836;52.286;9.576;2023-04-24T10:37:44;13.40;96.90
44170;DHT22;29836;52.286;9.576;2023-04-24T10:40:11;13.00;96.70
44170;DHT22;29836;52.286;9.576;2023-04-24T10:42:40;12.90;97.30
44170;DHT22;29836;52.286;9.576;2023-04-24T10:45:19;12.60;97.90
44170;DHT22;29836;52.286;9.576;2023-04-24T10:47:57;12.40;98.30
44170;DHT22;29836;52.286;9.576;2023-04-24T10:50:25;12.60;98.70
44170;DHT22;29836;52.286;9.576;2023-04-24T10:52:51;12.60;98.30
44170;DHT22;29836;52.286;9.576;2023-04-24T10:55:50;12.60;98.80
44170;DHT22;29836;52.286;9.576;2023-04-24T10:58:23;12.70;99.30
44170;DHT22;29836;52.286;9.576;2023-04-24T11:00:59;12.80;99.10
44170;DHT22;29836;52.286;9.576;2023-04-24T11:03:29;12.40;98.80
44170;DHT22;29836;52.286;9.576;2023-04-24T11:06:09;12.10;99.30
44170;DHT22;29836;52.286;9.576;2023-04-24T11:08:40;11.90;99.20
44170;DHT22;29836;52.286;9.576;2023-04-24T11:11:15;11.90;99.50
44170;DHT22;29836;52.286;9.576;2023-04-24T11:16:45;14.30;96.50
44170;DHT22;29836;52.286;9.576;2023-04-24T11:21:47;19.00;87.00
44170;DHT22;29836;52.286;9.576;2023-04-24T11:32:24;15.80;90.50
44170;DHT22;29836;52.286;9.576;2023-04-24T11:35:00;15.00;92.10
44170;DHT22;29836;52.286;9.576;2023-04-24T11:37:29;14.30;92.60
44170;DHT22;29836;52.286;9.576;2023-04-24T11:39:56;14.10;93.90
44170;DHT22;29836;52.286;9.576;2023-04-24T11:42:22;14.10;93.60
44170;DHT22;29836;52.286;9.576;2023-04-24T11:44:52;14.10;93.30
44170;DHT22;29836;52.286;9.576;2023-04-24T11:47:18;14.10;93.30
44170;DHT22;29836;52.286;9.576;2023-04-24T11:49:44;14.00;93.70
44170;DHT22;29836;52.286;9.576;2023-04-24T11:52:09;13.80;94.10
44170;DHT22;29836;52.286;9.576;2023-04-24T11:54:36;13.90;94.00
44170;DHT22;29836;52.286;9.576;2023-04-24T11:57:04;14.00;93.90
44170;DHT22;29836;52.286;9.576;2023-04-24T11:59:35;14.00;93.30
44170;DHT22;29836;52.286;9.576;2023-04-24T12:02:02;13.70;93.70
44170;DHT22;29836;52.286;9.576;2023-04-24T12:04:39;13.30;94.40
44170;DHT22;29836;52.286;9.576;2023-04-24T12:07:05;13.10;94.40
44170;DHT22;29836;52.286;9.576;2023-04-24T12:09:41;13.20;95.30
44170;DHT22;29836;52.286;9.576;2023-04-24T12:12:07;14.10;95.30
44170;DHT22;29836;52.286;9.576;2023-04-24T12:14:33;14.70;93.40
44170;DHT22;29836;52.286;9.576;2023-04-24T12:16:58;14.70;93.10
44170;DHT22;29836;52.286;9.576;2023-04-24T12:19:24;14.80;93.10
44170;DHT22;29836;52.286;9.576;2023-04-24T12:22:04;15.20;94.10
44170;DHT22;29836;52.286;9.576;2023-04-24T12:24:30;15.90;92.30
44170;DHT22;29836;52.286;9.576;2023-04-24T12:26:56;15.70;92.40
44170;DHT22;29836;52.286;9.576;2023-04-24T12:29:23;15.80;93.00
44170;DHT22;29836;52.286;9.576;2023-04-24T12:31:51;16.40;93.00
44170;DHT22;29836;52.286;9.576;2023-04-24T12:36:46;15.30;91.80
44170;DHT22;29836;52.286;9.576;2023-04-24T12:39:16;14.70;93.80
44170;DHT22;29836;52.286;9.576;2023-04-24T12:41:55;14.30;93.90
44170;DHT22;29836;52.286;9.576;2023-04-24T12:44:34;13.80;95.00
44170;DHT22;29836;52.286;9.576;2023-04-24T12:47:00;13.30;95.90
44170;DHT22;29836;52.286;9.576;2023-04-24T12:49:27;12.90;96.50
44170;DHT22;29836;52.286;9.576;2023-04-24T12:51:53;12.50;97.50
44170;DHT22;29836;52.286;9.576;2023-04-24T12:54:19;12.20;98.70
44170;DHT22;29836;52.286;9.576;2023-04-24T12:56:44;11.90;99.90
44170;DHT22;29836;52.286;9.576;2023-04-24T12:59:10;11.90;99.90
44170;DHT22;29836;52.286;9.576;2023-04-24T13:01:35;11.70;99.90
44170;DHT22;29836;52.286;9.576;2023-04-24T13:04:01;11.30;99.90
44170;DHT22;29836;52.286;9.576;2023-04-24T13:06:26;11.00;99.90
44170;DHT22;29836;52.286;9.576;2023-04-24T13:08:52;11.00;99.90
44170;DHT22;29836;52.286;9.576;2023-04-24T13:11:17;11.10;99.90
44170;DHT22;29836;52.286;9.576;2023-04-24T13:13:43;11.00;99.90
44170;DHT22;29836;52.286;9.576;2023-04-24T13:16:08;11.10;99.90
44170;DHT22;29836;52.286;9.576;2023-04-24T13:18:34;11.00;99.90
44170;DHT22;29836;52.286;9.576;2023-04-24T13:20:59;11.00;99.90
44170;DHT22;29836;52.286;9.576;2023-04-24T13:23:25;11.20;99.90
44170;DHT22;29836;52.286;9.576;2023-04-24T13:25:51;11.40;99.90
44170;DHT22;29836;52.286;9.576;2023-04-24T13:28:17;11.60;99.90
44170;DHT22;29836;52.286;9.576;2023-04-24T13:30:42;11.60;99.90
44170;DHT22;29836;52.286;9.576;2023-04-24T13:33:08;11.30;99.90
44170;DHT22;29836;52.286;9.576;2023-04-24T13:35:34;10.90;99.90
44170;DHT22;29836;52.286;9.576;2023-04-24T13:37:59;10.50;99.90
44170;DHT22;29836;52.286;9.576;2023-04-24T13:40:26;10.30;99.90
44170;DHT22;29836;52.286;9.576;2023-04-24T13:42:52;10.10;99.90
44170;DHT22;29836;52.286;9.576;2023-04-24T13:45:18;9.80;99.90
44170;DHT22;29836;52.286;9.576;2023-04-24T13:47:43;9.40;99.90
44170;DHT22;29836;52.286;9.576;2023-04-24T13:50:09;9.10;99.90
44170;DHT22;29836;52.286;9.576;2023-04-24T13:52:35;8.90;99.90
44170;DHT22;29836;52.286;9.576;2023-04-24T13:55:00;8.70;99.90
44170;DHT22;29836;52.286;9.576;2023-04-24T13:57:26;8.70;99.90
44170;DHT22;29836;52.286;9.576;2023-04-24T13:59:52;8.60;99.90
44170;DHT22;29836;52.286;9.576;2023-04-24T14:02:18;8.60;99.90
44170;DHT22;29836;52.286;9.576;2023-04-24T14:04:43;8.70;99.90
44170;DHT22;29836;52.286;9.576;2023-04-24T14:07:09;8.80;99.90
44170;DHT22;29836;52.286;9.576;2023-04-24T14:09:34;8.80;99.90
44170;DHT22;29836;52.286;9.576;2023-04-24T14:12:00;8.90;99.90
44170;DHT22;29836;52.286;9.576;2023-04-24T14:14:27;9.00;99.90
44170;DHT22;29836;52.286;9.576;2023-04-24T14:16:52;9.00;99.90
44170;DHT22;29836;52.286;9.576;2023-04-24T14:19:18;9.00;99.90
44170;DHT22;29836;52.286;9.576;2023-04-24T14:21:43;8.90;99.90
44170;DHT22;29836;52.286;9.576;2023-04-24T14:24:09;8.80;99.90
44170;DHT22;29836;52.286;9.576;2023-04-24T14:26:34;8.80;99.90
44170;DHT22;29836;52.286;9.576;2023-04-24T14:29:00;8.70;99.90
44170;DHT22;29836;52.286;9.576;2023-04-24T14:31:26;8.60;99.90
44170;DHT22;29836;52.286;9.576;2023-04-24T14:33:51;8.40;99.90
44170;DHT22;29836;52.286;9.576;2023-04-24T14:36:17;8.30;99.90
44170;DHT22;29836;52.286;9.576;2023-04-24T14:38:42;8.30;99.90
44170;DHT22;29836;52.286;9.576;2023-04-24T14:41:08;8.30;99.90
44170;DHT22;29836;52.286;9.576;2023-04-24T14:43:35;8.40;99.90
44170;DHT22;29836;52.286;9.576;2023-04-24T14:46:01;8.40;99.90
44170;DHT22;29836;52.286;9.576;2023-04-24T14:48:27;8.60;99.90
44170;DHT22;29836;52.286;9.576;2023-04-24T14:50:53;8.90;99.90
44170;DHT22;29836;52.286;9.576;2023-04-24T14:53:18;9.10;99.90
44170;DHT22;29836;52.286;9.576;2023-04-24T14:55:44;9.20;99.90
44170;DHT22;29836;52.286;9.576;2023-04-24T14:58:10;9.30;99.90
44170;DHT22;29836;52.286;9.576;2023-04-24T15:00:35;9.30;99.90
44170;DHT22;29836;52.286;9.576;2023-04-24T15:03:01;9.20;99.90
44170;DHT22;29836;52.286;9.576;2023-04-24T15:05:26;9.10;99.90
44170;DHT22;29836;52.286;9.576;2023-04-24T15:07:52;9.00;99.90
44170;DHT22;29836;52.286;9.576;2023-04-24T15:10:17;8.90;99.90
44170;DHT22;29836;52.286;9.576;2023-04-24T15:12:43;9.00;99.90
44170;DHT22;29836;52.286;9.576;2023-04-24T15:15:09;9.20;99.90
44170;DHT22;29836;52.286;9.576;2023-04-24T15:17:35;9.50;99.90
44170;DHT22;29836;52.286;9.576;2023-04-24T15:20:02;9.70;99.90
44170;DHT22;29836;52.286;9.576;2023-04-24T15:22:28;9.80;99.90
44170;DHT22;29836;52.286;9.576;2023-04-24T15:24:53;9.90;99.90
44170;DHT22;29836;52.286;9.576;2023-04-24T15:27:19;10.00;99.90
44170;DHT22;29836;52.286;9.576;2023-04-24T15:29:44;10.10;99.90
44170;DHT22;29836;52.286;9.576;2023-04-24T15:32:10;10.10;99.90
44170;DHT22;29836;52.286;9.576;2023-04-24T15:34:35;10.20;99.90
44170;DHT22;29836;52.286;9.576;2023-04-24T15:37:01;10.10;99.90
44170;DHT22;29836;52.286;9.576;2023-04-24T15:39:26;10.00;99.90
44170;DHT22;29836;52.286;9.576;2023-04-24T15:41:52;9.90;99.90
44170;DHT22;29836;52.286;9.576;2023-04-24T15:44:19;9.80;99.90
44170;DHT22;29836;52.286;9.576;2023-04-24T15:46:45;9.70;99.90
44170;DHT22;29836;52.286;9.576;2023-04-24T15:49:10;9.70;99.90